Time;durP1;ratioP1;P1;durP2;ratioP2;P2;SDS_P1;SDS_P2;PMS_P1;PMS_P2;Temp;Humidity;BMP_temperature;BMP_pressure;BME280_temperature;BME280_humidity;BME280_pressure;Samples;Min_cycle;Max_cycle;Signal;HPM_P1;HPM_P2
2021/12/01 00:01:10;;;;;;;1.90;0.30;;;;;;;2.01;81.97;97763.67;104080;1306;24228;-29
2021/12/01 00:03:37;;;;;;;1.80;0.60;;;;;;;2.11;81.20;97764.14;104192;1304;24231;-30
2021/12/01 00:06:03;;;;;;;20.40;1.20;;;;;;;2.12;81.36;97783.59;104159;1310;24167;-29
2021/12/01 00:08:29;;;;;;;2.10;0.30;;;;;;;2.06;81.45;97778.14;104193;1304;22715;-29
2021/12/01 00:10:56;;;;;;;5.40;0.50;;;;;;;1.87;82.34;97787.91;104202;1304;24162;-25
2021/12/01 00:13:22;;;;;;;1.10;0.40;;;;;;;1.85;82.72;97797.17;104145;1308;24174;-24
2021/12/01 00:15:48;;;;;;;3.70;0.90;;;;;;;2.02;82.54;97802.09;104188;1304;24374;-29
2021/12/01 00:18:14;;;;;;;1.80;0.70;;;;;;;1.88;82.78;97811.42;104189;1309;24150;-25
2021/12/01 00:20:40;;;;;;;2.00;0.70;;;;;;;1.95;82.38;97803.98;104206;1310;24186;-29
2021/12/01 00:23:08;;;;;;;2.60;0.50;;;;;;;2.01;82.27;97809.29;104196;1310;24299;-25
2021/12/01 00:25:39;;;;;;;1.90;0.50;;;;;;;2.07;82.01;97818.89;104067;1310;22661;-29
2021/12/01 00:28:05;;;;;;;1.30;0.60;;;;;;;2.12;81.75;97813.02;104122;1310;24220;-24
2021/12/01 00:30:30;;;;;;;12.80;0.40;;;;;;;2.24;81.25;97823.15;104189;1304;24158;-28
2021/12/01 00:32:56;;;;;;;1.00;0.40;;;;;;;2.22;81.38;97832.21;104157;1304;24177;-26
2021/12/01 00:35:22;;;;;;;2.40;0.30;;;;;;;1.99;81.84;97833.55;104147;1304;24269;-26
2021/12/01 00:37:48;;;;;;;1.60;0.60;;;;;;;2.13;81.30;97833.55;104165;1304;24162;-29
2021/12/01 00:40:14;;;;;;;4.10;0.80;;;;;;;2.13;80.89;97843.97;104198;1304;24186;-23
2021/12/01 00:42:40;;;;;;;3.50;0.60;;;;;;;2.23;80.34;97849.51;104247;1310;24255;-24
2021/12/01 00:45:09;;;;;;;2.50;0.30;;;;;;;2.03;81.23;97844.81;104201;1309;24115;-28
2021/12/01 00:50:05;;;;;;;3.10;0.50;;;;;;;2.32;80.33;97858.88;104117;1308;24157;-29
2021/12/01 00:52:30;;;;;;;4.10;0.40;;;;;;;2.25;80.55;97865.71;104096;1304;24133;-24
2021/12/01 00:54:56;;;;;;;1.40;0.20;;;;;;;2.03;81.43;97875.36;104108;1304;24507;-29
2021/12/01 00:57:22;;;;;;;0.90;0.40;;;;;;;1.99;81.74;97876.92;104170;1304;24153;-24
2021/12/01 00:59:48;;;;;;;4.10;0.20;;;;;;;1.97;81.66;97879.77;104155;1308;24262;-25
2021/12/01 01:02:14;;;;;;;0.80;0.30;;;;;;;1.81;82.03;97879.33;104101;1304;24302;-29
2021/12/01 01:04:39;;;;;;;0.70;0.70;;;;;;;1.83;82.56;97894.43;104136;1310;22463;-29
2021/12/01 01:07:05;;;;;;;0.70;0.20;;;;;;;1.88;82.28;97903.11;104169;1302;24161;-29
2021/12/01 01:09:32;;;;;;;1.70;0.30;;;;;;;1.93;82.19;97894.76;104225;1307;24112;-29
2021/12/01 01:16:58;;;;;;;0.80;0.30;;;;;;;1.88;82.58;97910.76;104130;1310;24171;-25
2021/12/01 01:19:25;;;;;;;1.20;0.40;;;;;;;1.97;82.42;97927.45;104160;1308;24157;-25
2021/12/01 01:21:52;;;;;;;2.80;0.50;;;;;;;1.90;82.97;97928.30;104190;1304;24271;-25
2021/12/01 01:24:19;;;;;;;1.50;0.40;;;;;;;2.28;81.07;97937.23;104134;1309;22477;-29
2021/12/01 01:26:45;;;;;;;0.60;0.20;;;;;;;2.37;80.57;97932.92;104186;1309;24244;-25
2021/12/01 01:29:11;;;;;;;1.50;0.40;;;;;;;2.20;81.15;97946.44;104185;1304;24168;-26
2021/12/01 01:31:37;;;;;;;0.20;0.20;;;;;;;2.03;82.13;97950.40;104163;1308;24156;-29
2021/12/01 01:34:03;;;;;;;1.70;0.60;;;;;;;2.11;82.02;97969.48;104169;1304;24286;-24
2021/12/01 01:36:29;;;;;;;3.30;0.40;;;;;;;1.85;83.78;97978.03;104203;1309;24590;-25
2021/12/01 01:38:55;;;;;;;0.70;0.30;;;;;;;1.88;83.43;97979.63;104160;1310;24143;-29
2021/12/01 01:41:21;;;;;;;2.70;0.50;;;;;;;2.02;82.85;97995.37;104158;1310;24208;-29
2021/12/01 01:43:48;;;;;;;2.60;0.50;;;;;;;2.05;82.28;97990.05;104220;1310;24171;-29
2021/12/01 01:46:14;;;;;;;0.40;0.30;;;;;;;1.82;83.57;97986.85;104143;1308;24208;-24
2021/12/01 01:51:08;;;;;;;2.10;0.40;;;;;;;1.79;83.75;98007.45;104144;1310;24298;-29
2021/12/01 01:53:35;;;;;;;0.90;0.60;;;;;;;1.63;85.08;98015.09;104152;1310;24177;-27
2021/12/01 01:56:02;;;;;;;1.20;0.40;;;;;;;1.58;85.53;98017.30;104180;1295;24219;-24
2021/12/01 01:58:28;;;;;;;0.50;0.40;;;;;;;1.79;84.36;98018.31;104192;1310;23975;-24
2021/12/01 02:01:06;;;;;;;1.70;0.50;;;;;;;1.79;84.08;98026.41;104152;1309;24325;-29
2021/12/01 02:03:34;;;;;;;1.30;0.50;;;;;;;1.62;84.71;98026.77;104227;1308;24296;-29
2021/12/01 02:06:00;;;;;;;1.10;0.10;;;;;;;1.76;84.24;98037.81;104179;1309;22543;-25
2021/12/01 02:10:55;;;;;;;0.70;0.50;;;;;;;1.43;85.64;98034.99;104256;1308;22492;-25
2021/12/01 02:13:21;;;;;;;3.70;0.40;;;;;;;1.46;85.75;98034.66;104158;1304;24204;-25
2021/12/01 02:15:47;;;;;;;1.50;0.30;;;;;;;1.54;85.21;98036.96;104177;1304;22431;-24
2021/12/01 02:18:13;;;;;;;2.80;0.50;;;;;;;1.89;84.01;98036.71;104144;1305;24282;-24
2021/12/01 02:20:40;;;;;;;0.70;0.50;;;;;;;2.00;83.38;98046.97;104203;1310;24177;-24
2021/12/01 02:23:05;;;;;;;1.40;0.70;;;;;;;1.84;83.54;98051.77;104182;1308;24295;-24
2021/12/01 02:25:31;;;;;;;1.20;0.40;;;;;;;1.58;84.91;98062.48;104240;1308;24162;-24
2021/12/01 02:27:57;;;;;;;1.90;0.70;;;;;;;1.62;85.14;98066.02;103892;1308;487016;-24
2021/12/01 02:30:23;;;;;;;1.30;0.70;;;;;;;1.45;85.51;98062.17;104140;1309;24328;-24
2021/12/01 02:32:50;;;;;;;3.10;0.90;;;;;;;1.90;83.83;98066.61;104191;1309;24520;-25
2021/12/01 02:35:16;;;;;;;0.70;0.40;;;;;;;1.87;84.01;98077.72;104079;1310;24176;-29
2021/12/01 02:37:42;;;;;;;0.50;0.20;;;;;;;1.88;84.44;98087.85;104199;1304;24180;-29
2021/12/01 02:40:09;;;;;;;0.70;0.40;;;;;;;2.01;84.23;98090.83;104163;1304;24156;-25
2021/12/01 02:42:34;;;;;;;0.70;0.60;;;;;;;1.67;85.44;98092.14;104196;1304;24279;-29
2021/12/01 02:45:00;;;;;;;4.20;0.80;;;;;;;1.43;86.58;98093.98;104173;1308;24172;-29
2021/12/01 02:47:26;;;;;;;0.50;0.30;;;;;;;1.31;88.03;98097.80;104153;1308;24168;-25
2021/12/01 02:49:54;;;;;;;1.30;0.70;;;;;;;1.55;87.39;98099.84;104139;1304;24186;-25
2021/12/01 02:52:21;;;;;;;0.30;0.10;;;;;;;1.59;86.89;98100.48;104212;1304;24161;-29
2021/12/01 02:54:46;;;;;;;1.30;0.40;;;;;;;1.28;87.95;98107.41;104088;1304;24157;-29
2021/12/01 02:57:12;;;;;;;1.60;0.60;;;;;;;0.99;89.60;98119.98;104205;1310;24183;-25
2021/12/01 02:59:38;;;;;;;1.10;0.80;;;;;;;1.03;89.88;98117.42;104190;1308;24177;-29
2021/12/01 03:02:04;;;;;;;8.00;0.40;;;;;;;1.11;89.68;98119.36;104190;1304;24276;-28
2021/12/01 03:04:31;;;;;;;3.10;0.40;;;;;;;1.09;90.10;98131.40;104212;1304;24132;-29
2021/12/01 03:06:57;;;;;;;1.50;0.50;;;;;;;1.15;90.06;98135.98;104191;1308;24153;-27
2021/12/01 03:09:23;;;;;;;0.80;0.50;;;;;;;1.11;90.24;98153.67;103843;1307;24380;-29
2021/12/01 03:11:49;;;;;;;3.40;0.60;;;;;;;1.09;90.43;98162.86;104179;1310;22440;-25
2021/12/01 03:14:16;;;;;;;0.50;0.30;;;;;;;1.13;90.24;98162.79;104143;1304;24270;-26
2021/12/01 03:16:42;;;;;;;1.90;0.30;;;;;;;1.12;90.61;98173.34;104211;1309;24269;-29
2021/12/01 03:19:08;;;;;;;2.20;0.80;;;;;;;1.15;90.46;98174.65;104194;1304;24177;-25
2021/12/01 03:21:36;;;;;;;1.70;0.50;;;;;;;1.11;90.60;98174.65;104164;1304;24323;-24
2021/12/01 03:24:02;;;;;;;2.70;0.60;;;;;;;1.19;90.48;98172.21;104277;1308;22496;-29
2021/12/01 03:26:29;;;;;;;0.60;0.40;;;;;;;1.38;89.72;98171.95;104105;1304;24835;-29
2021/12/01 03:28:56;;;;;;;2.50;0.50;;;;;;;1.34;89.47;98170.44;104173;1304;24328;-28
2021/12/01 03:31:21;;;;;;;2.00;1.20;;;;;;;1.14;90.58;98174.52;104204;1304;24227;-29
2021/12/01 03:33:47;;;;;;;0.70;0.30;;;;;;;1.39;89.78;98170.91;104173;1304;24357;-28
2021/12/01 03:36:12;;;;;;;4.00;1.10;;;;;;;1.38;89.69;98175.95;104214;1309;24267;-26
2021/12/01 03:38:38;;;;;;;3.70;0.70;;;;;;;1.11;90.52;98175.80;104203;1304;24162;-28
2021/12/01 03:41:04;;;;;;;1.60;0.20;;;;;;;1.10;90.88;98176.75;104150;1304;24137;-26
2021/12/01 03:43:29;;;;;;;0.60;0.30;;;;;;;1.38;89.29;98175.09;104128;1307;24177;-27
2021/12/01 03:45:55;;;;;;;1.00;0.70;;;;;;;1.11;90.21;98178.73;103871;1304;24172;-25
2021/12/01 03:48:22;;;;;;;0.40;0.20;;;;;;;1.13;90.44;98184.05;104188;1304;24170;-25
2021/12/01 03:50:49;;;;;;;0.30;0.30;;;;;;;1.15;90.36;98182.89;104207;1304;24372;-25
2021/12/01 03:53:17;;;;;;;0.60;0.20;;;;;;;1.02;91.35;98176.35;104239;1310;22560;-29
2021/12/01 03:55:43;;;;;;;0.80;0.50;;;;;;;1.04;91.58;98177.45;104219;1309;24228;-29
2021/12/01 03:58:08;;;;;;;0.70;0.10;;;;;;;1.07;91.63;98176.95;104150;1304;24305;-25
2021/12/01 04:00:35;;;;;;;0.80;0.50;;;;;;;1.01;91.62;98172.81;104189;1304;24162;-26
2021/12/01 04:03:01;;;;;;;2.80;0.70;;;;;;;1.01;91.96;98171.73;104218;1304;24151;-25
2021/12/01 04:05:27;;;;;;;0.70;0.50;;;;;;;0.84;92.82;98172.16;104243;1304;24306;-25
2021/12/01 04:07:53;;;;;;;1.30;0.60;;;;;;;0.72;93.82;98175.02;104153;1304;24177;-29
2021/12/01 04:10:19;;;;;;;0.70;0.50;;;;;;;0.63;94.12;98180.86;104196;1304;24177;-24
2021/12/01 04:12:45;;;;;;;5.70;0.30;;;;;;;0.58;94.46;98180.55;104129;1304;24310;-25
2021/12/01 04:15:12;;;;;;;3.00;0.70;;;;;;;0.61;94.90;98177.95;104113;1311;24159;-28
2021/12/01 04:17:38;;;;;;;1.20;0.40;;;;;;;0.68;94.99;98179.39;104125;1309;22465;-26
2021/12/01 04:20:04;;;;;;;1.00;0.50;;;;;;;0.64;95.25;98179.21;104061;1304;24261;-25
2021/12/01 04:22:30;;;;;;;1.30;0.80;;;;;;;0.56;95.80;98178.67;104227;1298;24150;-29
2021/12/01 04:24:55;;;;;;;1.60;0.70;;;;;;;0.65;95.59;98186.12;104193;1309;24177;-26
2021/12/01 04:27:21;;;;;;;1.60;0.50;;;;;;;0.66;95.02;98186.24;104122;1304;22493;-25
2021/12/01 04:29:48;;;;;;;1.80;0.70;;;;;;;0.67;95.53;98185.25;104224;1304;22474;-25
2021/12/01 04:32:14;;;;;;;1.10;0.40;;;;;;;0.76;95.87;98186.09;104133;1304;24150;-29
2021/12/01 04:34:39;;;;;;;1.00;0.60;;;;;;;0.89;95.45;98190.83;103940;1304;22726;-29
2021/12/01 04:37:06;;;;;;;4.00;1.10;;;;;;;0.91;95.01;98195.89;104214;1304;24303;-29
2021/12/01 04:39:32;;;;;;;2.30;0.90;;;;;;;0.86;94.92;98192.77;104206;1308;24211;-29
2021/12/01 04:42:04;;;;;;;1.60;0.70;;;;;;;0.86;95.36;98184.45;104156;1304;24324;-29
2021/12/01 04:44:30;;;;;;;1.70;0.90;;;;;;;0.93;95.26;98174.56;104173;1304;22732;-25
2021/12/01 04:46:57;;;;;;;1.00;0.70;;;;;;;0.94;94.96;98173.31;104186;1309;24171;-29
2021/12/01 04:49:23;;;;;;;0.90;0.60;;;;;;;0.97;95.09;98169.15;104196;1304;24189;-25
2021/12/01 04:51:52;;;;;;;1.20;0.50;;;;;;;0.94;94.90;98167.89;104234;1304;24272;-25
2021/12/01 04:54:18;;;;;;;3.00;0.60;;;;;;;0.94;95.45;98169.64;104228;1300;22782;-29
2021/12/01 04:56:45;;;;;;;3.30;0.80;;;;;;;1.01;95.40;98170.34;104183;1304;22599;-29
2021/12/01 04:59:11;;;;;;;1.90;0.80;;;;;;;1.01;95.05;98172.14;104212;1304;25277;-25
2021/12/01 05:01:37;;;;;;;2.30;0.80;;;;;;;0.94;95.24;98170.94;103898;1310;24154;-28
2021/12/01 05:04:03;;;;;;;3.80;0.60;;;;;;;0.98;95.26;98173.81;104135;1304;22467;-29
2021/12/01 05:06:29;;;;;;;0.90;0.40;;;;;;;1.00;95.40;98177.15;104171;1304;24266;-29
2021/12/01 05:08:55;;;;;;;1.00;0.50;;;;;;;1.29;94.37;98177.48;104223;1304;24172;-29
2021/12/01 05:11:21;;;;;;;2.80;0.60;;;;;;;1.23;93.03;98175.30;104134;1304;24276;-29
2021/12/01 05:13:46;;;;;;;0.90;0.30;;;;;;;1.15;92.75;98178.33;104161;1304;24293;-29
2021/12/01 05:16:12;;;;;;;0.30;0.20;;;;;;;0.99;93.47;98183.91;104152;1304;24250;-31
2021/12/01 05:18:38;;;;;;;1.50;0.40;;;;;;;1.04;92.86;98184.81;104188;1305;24162;-30
2021/12/01 05:21:04;;;;;;;0.90;0.60;;;;;;;0.84;93.19;98184.85;104159;1304;24186;-29
2021/12/01 05:23:30;;;;;;;1.20;0.30;;;;;;;0.81;93.62;98188.48;104163;1304;24404;-28
2021/12/01 05:25:55;;;;;;;0.50;0.20;;;;;;;0.81;93.30;98192.77;104152;1304;24211;-29
2021/12/01 05:28:21;;;;;;;0.30;0.10;;;;;;;0.89;92.40;98196.08;104085;1304;24187;-31
2021/12/01 05:30:47;;;;;;;1.30;0.30;;;;;;;0.68;92.77;98199.73;104198;1304;24364;-29
2021/12/01 05:33:15;;;;;;;1.40;0.50;;;;;;;0.63;93.10;98205.38;104184;1305;24167;-25
2021/12/01 05:35:41;;;;;;;0.30;0.20;;;;;;;0.61;93.31;98205.14;104364;1304;23924;-30
2021/12/01 05:38:06;;;;;;;1.60;0.80;;;;;;;0.73;92.12;98207.14;104244;1304;24264;-29
2021/12/01 05:40:32;;;;;;;1.30;0.40;;;;;;;0.69;91.15;98208.80;104294;1304;24180;-28
2021/12/01 05:42:58;;;;;;;1.00;0.40;;;;;;;0.38;91.86;98205.77;104076;1310;24214;-26
2021/12/01 05:45:24;;;;;;;1.80;0.50;;;;;;;0.21;92.88;98205.93;104209;1304;22587;-29
2021/12/01 05:47:50;;;;;;;3.50;0.40;;;;;;;0.19;93.13;98210.74;104138;1304;24153;-25
2021/12/01 05:50:16;;;;;;;1.10;0.60;;;;;;;0.18;93.86;98209.22;104218;1309;24092;-25
2021/12/01 05:52:42;;;;;;;1.80;0.30;;;;;;;0.22;93.80;98210.55;104222;1308;24260;-26
2021/12/01 05:55:08;;;;;;;0.20;0.10;;;;;;;0.27;93.57;98205.81;104111;1304;24158;-25
2021/12/01 05:57:34;;;;;;;2.10;0.50;;;;;;;0.29;93.86;98198.77;104178;1304;24269;-29
2021/12/01 06:00:00;;;;;;;1.00;0.40;;;;;;;0.32;93.82;98196.39;104231;1304;24182;-28
2021/12/01 06:02:27;;;;;;;3.60;1.90;;;;;;;0.29;93.73;98194.17;104194;1309;24153;-29
2021/12/01 06:04:52;;;;;;;24.20;13.20;;;;;;;0.21;93.90;98192.62;104231;1304;24331;-29
2021/12/01 06:07:19;;;;;;;38.50;15.40;;;;;;;0.15;94.00;98185.08;104119;1304;24177;-27
2021/12/01 06:09:44;;;;;;;31.60;16.20;;;;;;;0.12;94.04;98179.23;104236;1304;24177;-25
2021/12/01 06:12:11;;;;;;;13.00;9.60;;;;;;;0.07;93.75;98170.11;104165;1304;24153;-29
2021/12/01 06:14:38;;;;;;;6.80;5.10;;;;;;;-0.04;94.00;98170.56;104287;1304;22440;-25
2021/12/01 06:17:04;;;;;;;8.10;4.50;;;;;;;-0.10;93.90;98167.23;104036;1304;24163;-28
2021/12/01 06:19:29;;;;;;;5.40;3.70;;;;;;;-0.17;93.84;98167.84;104124;1304;24280;-28
2021/12/01 06:21:55;;;;;;;4.80;2.60;;;;;;;-0.27;94.35;98176.23;104170;1304;24478;-29
2021/12/01 06:24:21;;;;;;;1.30;0.90;;;;;;;-0.33;94.27;98175.79;104092;1304;22493;-29
2021/12/01 06:26:47;;;;;;;2.20;1.40;;;;;;;-0.36;94.46;98172.80;104232;1304;24195;-29
2021/12/01 06:29:12;;;;;;;1.70;0.60;;;;;;;-0.38;94.37;98172.16;104143;1304;24305;-29
2021/12/01 06:31:38;;;;;;;3.20;0.80;;;;;;;-0.38;94.59;98166.15;104121;1304;24325;-29
2021/12/01 06:34:04;;;;;;;2.20;1.00;;;;;;;-0.37;94.88;98169.72;104193;1302;24214;-24
2021/12/01 06:36:30;;;;;;;3.20;0.90;;;;;;;-0.37;94.93;98168.13;104225;1305;25006;-27
2021/12/01 06:38:55;;;;;;;3.00;1.10;;;;;;;-0.35;94.99;98170.05;104252;1304;24171;-28
2021/12/01 06:41:21;;;;;;;1.30;0.70;;;;;;;-0.35;95.24;98169.34;104183;1304;24171;-27
2021/12/01 06:43:47;;;;;;;1.60;0.80;;;;;;;-0.30;95.84;98170.26;104141;1304;24162;-30
2021/12/01 06:46:12;;;;;;;2.10;1.00;;;;;;;-0.25;95.66;98163.73;104181;1304;24147;-28
2021/12/01 06:48:38;;;;;;;2.10;0.70;;;;;;;-0.18;95.47;98157.09;104252;1304;24322;-25
2021/12/01 06:51:04;;;;;;;3.60;0.90;;;;;;;-0.16;95.39;98153.00;104139;1304;22482;-28
2021/12/01 06:53:30;;;;;;;6.40;2.50;;;;;;;-0.11;95.25;98155.66;104050;1304;24157;-31
2021/12/01 06:55:56;;;;;;;5.40;1.60;;;;;;;-0.18;95.10;98150.94;104130;1309;24289;-25
2021/12/01 06:58:21;;;;;;;3.50;1.70;;;;;;;-0.24;95.55;98145.58;104233;1308;23082;-31
2021/12/01 07:00:47;;;;;;;3.70;1.50;;;;;;;-0.25;96.18;98144.73;104236;1304;24151;-26
2021/12/01 07:03:13;;;;;;;4.50;1.30;;;;;;;-0.18;95.85;98145.77;104134;1304;24207;-29
2021/12/01 07:05:39;;;;;;;5.50;1.40;;;;;;;-0.16;95.70;98142.44;104204;1304;22444;-32
2021/12/01 07:08:05;;;;;;;3.10;1.20;;;;;;;-0.14;95.89;98134.44;104208;1308;24172;-26
2021/12/01 07:10:31;;;;;;;4.20;1.80;;;;;;;-0.04;96.08;98129.23;104099;1304;24289;-29
2021/12/01 07:12:56;;;;;;;3.90;0.90;;;;;;;0.06;96.16;98121.86;104161;1304;24355;-28
2021/12/01 07:15:22;;;;;;;3.20;1.30;;;;;;;0.13;96.37;98115.21;104077;1310;24156;-26
2021/12/01 07:17:48;;;;;;;3.20;1.30;;;;;;;0.20;96.04;98114.01;104226;1304;24258;-30
2021/12/01 07:20:14;;;;;;;2.10;1.20;;;;;;;0.18;95.55;98105.35;104125;1304;24168;-30
2021/12/01 07:22:41;;;;;;;3.80;0.90;;;;;;;0.19;95.59;98100.84;104266;1304;24171;-32
2021/12/01 07:25:08;;;;;;;3.30;0.80;;;;;;;0.22;95.72;98095.42;104284;1304;23750;-30
2021/12/01 07:27:33;;;;;;;2.90;1.00;;;;;;;0.24;95.56;98090.21;104269;1308;24259;-24
2021/12/01 07:29:59;;;;;;;1.80;0.70;;;;;;;0.22;95.40;98082.81;104191;1304;22700;-27
2021/12/01 07:32:27;;;;;;;9.50;1.80;;;;;;;0.25;95.62;98076.15;104201;1304;24170;-30
2021/12/01 07:34:53;;;;;;;8.90;2.90;;;;;;;0.32;95.77;98068.14;104182;1304;24166;-26
2021/12/01 07:37:19;;;;;;;6.80;2.30;;;;;;;0.40;95.47;98068.17;104428;1304;22833;-24
2021/12/01 07:39:45;;;;;;;5.40;1.50;;;;;;;0.49;95.53;98072.54;104172;1305;23836;-32
2021/12/01 07:42:11;;;;;;;11.50;2.40;;;;;;;0.59;94.89;98072.84;104303;1304;24187;-32
2021/12/01 07:44:37;;;;;;;8.20;1.50;;;;;;;0.63;93.64;98074.86;104269;1308;24351;-28
2021/12/01 07:47:03;;;;;;;3.80;1.30;;;;;;;0.63;93.30;98067.71;104088;1304;24264;-30
2021/12/01 07:49:29;;;;;;;6.40;2.00;;;;;;;0.60;93.29;98058.14;104163;1304;22441;-25
2021/12/01 07:51:54;;;;;;;4.30;2.70;;;;;;;0.58;93.50;98048.78;104371;1309;24178;-25
2021/12/01 07:54:20;;;;;;;13.60;2.30;;;;;;;0.63;93.21;98047.89;104190;1309;24154;-27
2021/12/01 07:56:46;;;;;;;6.60;2.70;;;;;;;0.68;92.82;98038.38;104303;1304;24397;-31
2021/12/01 07:59:15;;;;;;;3.50;2.30;;;;;;;0.62;93.04;98035.47;104291;1297;24162;-32
2021/12/01 08:01:42;;;;;;;4.60;2.20;;;;;;;0.67;93.33;98031.57;104301;1304;24252;-27
2021/12/01 08:04:09;;;;;;;4.20;2.60;;;;;;;0.84;93.15;98024.80;104097;1304;24249;-26
2021/12/01 08:06:35;;;;;;;3.90;1.90;;;;;;;0.98;93.33;98018.69;104335;1304;24459;-30
2021/12/01 08:09:02;;;;;;;3.80;1.40;;;;;;;1.16;93.45;98015.10;104507;1304;24337;-25
2021/12/01 08:11:28;;;;;;;2.50;0.70;;;;;;;1.39;93.64;98009.32;104026;1310;24280;-26
2021/12/01 08:13:54;;;;;;;2.10;0.80;;;;;;;1.53;92.33;98004.85;104321;1304;24164;-30
2021/12/01 08:16:20;;;;;;;5.50;1.60;;;;;;;1.65;91.34;98003.80;104325;1304;24272;-26
2021/12/01 08:18:51;;;;;;;3.30;1.10;;;;;;;1.84;90.94;98003.59;104673;1304;22697;-26
2021/12/01 08:21:18;;;;;;;3.40;1.20;;;;;;;2.01;90.11;97999.24;104251;1304;22592;-30
2021/12/01 08:23:43;;;;;;;8.90;1.60;;;;;;;2.15;88.83;97994.40;104112;1304;24243;-25
2021/12/01 08:26:09;;;;;;;8.90;1.70;;;;;;;2.39;88.76;97989.55;104175;1304;24171;-25
2021/12/01 08:28:35;;;;;;;3.20;1.60;;;;;;;2.68;89.99;97987.52;104054;1304;24162;-29
2021/12/01 08:31:01;;;;;;;3.70;1.90;;;;;;;2.80;88.90;97985.45;104213;1304;24302;-29
2021/12/01 08:33:29;;;;;;;4.90;2.40;;;;;;;2.88;88.33;97981.89;104142;1304;24325;-29
2021/12/01 08:35:55;;;;;;;12.50;2.90;;;;;;;2.97;88.38;97977.37;104154;1304;24190;-25
2021/12/01 08:38:20;;;;;;;7.80;2.40;;;;;;;3.02;87.55;97980.45;104145;1304;24265;-28
2021/12/01 08:40:46;;;;;;;7.90;2.50;;;;;;;3.20;88.51;97984.81;104141;1304;24140;-24
2021/12/01 08:43:12;;;;;;;10.10;1.80;;;;;;;3.32;86.94;97980.04;104140;1304;24272;-29
2021/12/01 08:45:37;;;;;;;5.80;2.40;;;;;;;3.42;86.52;97973.34;104129;1304;24322;-24
2021/12/01 08:48:05;;;;;;;10.40;1.40;;;;;;;3.42;86.02;97967.50;104179;1304;24153;-29
2021/12/01 08:50:31;;;;;;;7.20;1.40;;;;;;;3.37;84.87;97965.10;104209;1304;22561;-29
2021/12/01 08:52:57;;;;;;;4.00;1.40;;;;;;;3.25;84.37;97960.28;104150;1304;24168;-30
2021/12/01 08:55:23;;;;;;;3.90;1.40;;;;;;;3.15;82.93;97959.21;104054;1297;24141;-25
2021/12/01 08:57:49;;;;;;;6.20;1.80;;;;;;;3.21;84.22;97954.77;104167;1308;24408;-27
2021/12/01 09:00:17;;;;;;;3.20;1.20;;;;;;;3.20;83.83;97949.04;104117;1304;24177;-29
2021/12/01 09:02:42;;;;;;;7.40;1.60;;;;;;;3.24;84.82;97948.59;104202;1304;22733;-29
2021/12/01 09:05:08;;;;;;;9.90;2.10;;;;;;;3.33;84.41;97941.67;104150;1304;24252;-25
2021/12/01 09:07:34;;;;;;;9.60;1.50;;;;;;;3.36;84.89;97940.96;104046;1304;24162;-25
2021/12/01 09:10:00;;;;;;;5.50;2.00;;;;;;;3.35;83.02;97944.31;104170;1304;24150;-29
2021/12/01 09:12:25;;;;;;;4.30;1.70;;;;;;;3.30;82.01;97940.98;104142;1304;24404;-28
2021/12/01 09:14:52;;;;;;;9.20;1.70;;;;;;;3.15;81.86;97935.01;104165;1304;24257;-27
2021/12/01 09:17:18;;;;;;;6.40;1.80;;;;;;;3.14;82.58;97931.04;104230;1304;24150;-25
2021/12/01 09:19:43;;;;;;;8.70;2.10;;;;;;;3.17;82.24;97929.31;104167;1304;24337;-25
2021/12/01 09:22:09;;;;;;;4.00;1.70;;;;;;;3.13;82.46;97923.23;104232;1304;24141;-25
2021/12/01 09:24:35;;;;;;;14.90;2.70;;;;;;;3.14;83.17;97915.11;104154;1309;24177;-29
2021/12/01 09:27:01;;;;;;;20.00;3.20;;;;;;;3.10;82.60;97912.63;104144;1304;24257;-29
2021/12/01 09:29:27;;;;;;;108.70;33.40;;;;;;;2.95;82.25;97912.31;103843;1310;24131;-25
2021/12/01 09:31:55;;;;;;;20.20;7.70;;;;;;;2.92;82.00;97910.06;104023;1304;24180;-24
2021/12/01 09:34:23;;;;;;;11.80;4.30;;;;;;;2.82;81.90;97906.42;104213;1305;24177;-29
2021/12/01 09:36:48;;;;;;;14.50;6.80;;;;;;;2.77;81.76;97903.35;104173;1304;24248;-24
2021/12/01 09:39:15;;;;;;;7.50;5.00;;;;;;;2.59;81.74;97900.48;104166;1309;24580;-29
2021/12/01 09:41:40;;;;;;;11.40;5.90;;;;;;;2.49;81.63;97894.98;104152;1304;24144;-25
2021/12/01 09:44:06;;;;;;;29.90;19.50;;;;;;;2.32;82.49;97890.98;104164;1304;24186;-24
2021/12/01 09:46:32;;;;;;;26.80;18.10;;;;;;;2.30;83.05;97883.48;104093;1304;24294;-24
2021/12/01 09:48:58;;;;;;;15.20;10.80;;;;;;;2.27;83.43;97881.95;104171;1304;24313;-30
2021/12/01 09:51:24;;;;;;;10.40;6.60;;;;;;;2.18;84.17;97874.50;104199;1304;24289;-29
2021/12/01 09:53:49;;;;;;;35.80;16.00;;;;;;;2.17;85.08;97871.10;104142;1304;24280;-25
2021/12/01 09:56:16;;;;;;;19.70;11.70;;;;;;;2.26;84.60;97861.49;104167;1304;24212;-24
2021/12/01 09:58:43;;;;;;;45.40;23.80;;;;;;;2.16;85.37;97855.08;104082;1303;24157;-29
2021/12/01 10:01:12;;;;;;;63.50;10.50;;;;;;;2.21;85.99;97846.98;104141;1304;24170;-24
2021/12/01 10:03:39;;;;;;;27.10;6.40;;;;;;;2.25;85.93;97842.54;104111;1302;24468;-24
2021/12/01 10:06:09;;;;;;;12.10;3.00;;;;;;;2.29;85.53;97840.11;104185;1304;22833;-24
2021/12/01 10:08:38;;;;;;;9.40;3.80;;;;;;;2.33;86.40;97832.12;104122;1309;24276;-29
2021/12/01 10:11:06;;;;;;;32.70;7.70;;;;;;;2.50;86.20;97822.98;104180;1309;24455;-24
2021/12/01 10:13:33;;;;;;;60.60;20.70;;;;;;;2.51;86.18;97817.90;104183;1304;23868;-24
2021/12/01 10:16:01;;;;;;;10.80;4.60;;;;;;;2.56;86.26;97807.58;104183;1304;24201;-24
2021/12/01 10:18:27;;;;;;;18.50;10.00;;;;;;;2.65;86.56;97805.71;104146;1304;24371;-24
2021/12/01 10:20:57;;;;;;;21.70;5.90;;;;;;;2.69;86.52;97803.36;104273;1304;24210;-24
2021/12/01 10:23:24;;;;;;;23.20;5.70;;;;;;;2.79;86.07;97794.95;104212;1308;24289;-24
2021/12/01 10:25:50;;;;;;;25.90;6.00;;;;;;;2.69;86.15;97787.48;104189;1304;24306;-28
2021/12/01 10:28:23;;;;;;;6.40;3.20;;;;;;;2.56;86.22;97784.98;103683;1304;606276;-24
2021/12/01 10:30:48;;;;;;;152.80;46.10;;;;;;;2.50;86.72;97784.17;104524;1304;23890;-29
2021/12/01 10:33:16;;;;;;;31.80;15.80;;;;;;;2.46;87.02;97780.45;104231;1309;24265;-24
2021/12/01 10:35:41;;;;;;;60.30;23.30;;;;;;;2.46;87.15;97778.59;104179;1304;22659;-29
2021/12/01 10:38:08;;;;;;;39.30;11.00;;;;;;;2.44;87.47;97773.21;104057;1308;24167;-30
2021/12/01 10:40:35;;;;;;;67.40;18.60;;;;;;;2.43;87.93;97770.63;104189;1304;24258;-25
2021/12/01 10:43:02;;;;;;;42.50;20.20;;;;;;;2.51;87.80;97759.96;104215;1304;24276;-24
2021/12/01 10:45:31;;;;;;;49.90;27.00;;;;;;;2.52;87.82;97757.01;104159;1305;24175;-29
2021/12/01 10:47:57;;;;;;;77.80;28.80;;;;;;;2.58;88.23;97754.67;104197;1304;24281;-29
2021/12/01 10:50:25;;;;;;;79.00;33.80;;;;;;;2.61;88.52;97757.52;104133;1304;24189;-29
2021/12/01 10:52:55;;;;;;;40.70;18.10;;;;;;;2.53;89.24;97750.34;104173;1304;24170;-29
2021/12/01 10:55:23;;;;;;;18.10;9.30;;;;;;;2.52;89.43;97747.95;104191;1304;24198;-29
2021/12/01 10:57:54;;;;;;;34.60;11.40;;;;;;;2.51;89.66;97741.82;104177;1304;22875;-29
2021/12/01 11:00:23;;;;;;;9.90;5.70;;;;;;;2.49;89.71;97733.89;104211;1304;22762;-27
2021/12/01 11:02:50;;;;;;;15.00;5.90;;;;;;;2.57;89.61;97732.43;104218;1303;24148;-24
2021/12/01 11:05:22;;;;;;;12.20;5.20;;;;;;;2.53;89.94;97734.06;104189;1304;24289;-26
2021/12/01 11:07:48;;;;;;;12.20;5.30;;;;;;;2.60;90.38;97730.92;104063;1308;22729;-24
2021/12/01 11:10:15;;;;;;;9.80;5.70;;;;;;;2.70;90.13;97724.44;104168;1305;24173;-29
2021/12/01 11:12:42;;;;;;;11.30;6.70;;;;;;;2.72;90.68;97721.23;104139;1304;24389;-30
2021/12/01 11:15:14;;;;;;;17.70;7.00;;;;;;;2.86;91.10;97715.05;104205;1304;24182;-24
2021/12/01 11:17:41;;;;;;;10.90;4.50;;;;;;;2.93;90.44;97706.75;104181;1310;22447;-24
2021/12/01 11:20:08;;;;;;;7.20;4.10;;;;;;;2.95;90.93;97699.88;104193;1307;24276;-24
2021/12/01 11:22:36;;;;;;;5.80;2.90;;;;;;;3.04;90.68;97694.66;104224;1304;24177;-30
2021/12/01 11:25:22;;;;;;;32.50;6.30;;;;;;;3.01;91.08;97688.67;104256;1304;24225;-30
2021/12/01 11:27:48;;;;;;;17.90;4.40;;;;;;;3.09;91.39;97679.48;104188;1304;23835;-30
2021/12/01 11:30:14;;;;;;;30.60;12.50;;;;;;;3.15;91.22;97675.94;104076;1304;24177;-25
2021/12/01 11:32:39;;;;;;;19.00;7.40;;;;;;;3.38;90.75;97675.21;104210;1304;24289;-29
2021/12/01 11:35:05;;;;;;;29.80;9.30;;;;;;;3.50;90.16;97666.90;104147;1305;24305;-30
2021/12/01 11:37:32;;;;;;;22.40;3.90;;;;;;;3.46;90.10;97664.26;104149;1305;24156;-24